createdAt,value
2023-09-27T00:00:10.309Z,102007.75
2023-09-27T00:02:45.400Z,102004.96
2023-09-27T00:05:13.756Z,101998.26
2023-09-27T00:07:42.395Z,101997.73
2023-09-27T00:10:11.098Z,102001.33
2023-09-27T00:12:39.771Z,102003.55
2023-09-27T00:15:09.666Z,101998.73
2023-09-27T00:17:37.247Z,102000.92
2023-09-27T00:20:07.261Z,102001.73
2023-09-27T00:22:34.819Z,102006.06
2023-09-27T00:25:02.312Z,102007.58
2023-09-27T00:27:29.770Z,102001.51
2023-09-27T00:29:57.280Z,102000.78
2023-09-27T00:32:24.789Z,101999.35
2023-09-27T00:34:52.400Z,101997.05
2023-09-27T00:37:20.007Z,101995.26
2023-09-27T00:39:47.513Z,101996.20
2023-09-27T00:42:15.049Z,101994.84
2023-09-27T00:44:42.604Z,101997.69
2023-09-27T00:47:10.143Z,101996.35
2023-09-27T00:49:37.817Z,101997.41
2023-09-27T00:52:05.324Z,101990.30
2023-09-27T00:54:33.337Z,101995.80
2023-09-27T00:57:01.061Z,101992.77
2023-09-27T00:59:28.609Z,101996.70
2023-09-27T01:01:56.158Z,101997.41
2023-09-27T01:04:24.189Z,101996.52
2023-09-27T01:06:51.680Z,101995.75
2023-09-27T01:09:19.287Z,101990.95
2023-09-27T01:11:47.816Z,101989.64
2023-09-27T01:14:15.561Z,101987.24
2023-09-27T01:16:43.144Z,101988.89
2023-09-27T01:19:10.632Z,101993.16
2023-09-27T01:21:38.700Z,101992.34
2023-09-27T01:24:07.927Z,101992.59
2023-09-27T01:26:35.364Z,101992.98
2023-09-27T01:29:03.147Z,101988.63
2023-09-27T01:31:30.661Z,101989.92
2023-09-27T01:33:58.239Z,101986.99
2023-09-27T01:36:26.122Z,101986.94
2023-09-27T01:38:53.798Z,101985.86
2023-09-27T01:41:21.605Z,101988.95
2023-09-27T01:43:49.100Z,101989.60
2023-09-27T01:46:16.651Z,101989.29
2023-09-27T01:48:44.229Z,101989.20
2023-09-27T01:51:11.779Z,101990.86
2023-09-27T01:53:39.238Z,101990.77
2023-09-27T01:56:06.836Z,101987.54
2023-09-27T01:58:34.374Z,101991.51
2023-09-27T02:01:01.998Z,101990.75
2023-09-27T02:03:29.614Z,101991.92
2023-09-27T02:05:59.029Z,101992.52
2023-09-27T02:08:26.862Z,101991.42
2023-09-27T02:10:54.446Z,101993.67
2023-09-27T02:13:22.077Z,101996.22
2023-09-27T02:15:49.550Z,101994.73
2023-09-27T02:18:17.223Z,101996.02
2023-09-27T02:20:44.883Z,101998.84
2023-09-27T02:23:12.390Z,101998.36
2023-09-27T02:25:40.650Z,101999.12
2023-09-27T02:28:08.111Z,101998.11
2023-09-27T02:30:36.076Z,101999.38
2023-09-27T02:33:03.783Z,102000.42
2023-09-27T02:35:31.496Z,102000.75
2023-09-27T02:37:59.418Z,102000.61
2023-09-27T02:40:27.059Z,101995.95
2023-09-27T02:42:55.148Z,101998.26
2023-09-27T02:45:22.838Z,102000.27
2023-09-27T02:47:50.564Z,101999.81
2023-09-27T02:50:18.254Z,102001.63
2023-09-27T02:52:46.017Z,101997.81
2023-09-27T02:55:13.651Z,101997.02
2023-09-27T02:57:41.321Z,101997.42
2023-09-27T03:00:09.896Z,102001.35
2023-09-27T03:02:39.260Z,101999.01
2023-09-27T03:05:09.237Z,102001.91
2023-09-27T03:07:39.634Z,101998.85
2023-09-27T03:10:12.716Z,102001.09
2023-09-27T03:12:41.060Z,102001.02
2023-09-27T03:15:13.393Z,101996.34
2023-09-27T03:17:43.835Z,101996.73
2023-09-27T03:20:18.487Z,101992.89
2023-09-27T03:22:47.693Z,101999.94
2023-09-27T03:25:18.277Z,101999.80
2023-09-27T03:27:46.846Z,102001.58
2023-09-27T03:30:14.542Z,102006.52
2023-09-27T03:32:42.210Z,102005.13
2023-09-27T03:35:10.161Z,101999.33
2023-09-27T03:37:37.969Z,102000.40
2023-09-27T03:40:15.434Z,102003.58
2023-09-27T03:42:47.644Z,102004.60
2023-09-27T03:45:17.353Z,102004.62
2023-09-27T03:47:46.602Z,102007.73
2023-09-27T03:50:18.295Z,102006.66
2023-09-27T03:52:45.979Z,102007.01
2023-09-27T03:55:13.741Z,102008.05
2023-09-27T03:57:44.543Z,102009.10
2023-09-27T04:00:16.159Z,102012.23
2023-09-27T04:02:44.872Z,102011.73
2023-09-27T04:05:13.072Z,102012.56
2023-09-27T04:07:41.159Z,102015.00
2023-09-27T04:10:09.194Z,102018.15
2023-09-27T04:12:37.712Z,102016.04
2023-09-27T04:15:10.360Z,102020.58
2023-09-27T04:17:38.956Z,102017.92
2023-09-27T04:20:17.919Z,102018.39
2023-09-27T04:22:46.931Z,102020.95
2023-09-27T04:25:15.404Z,102021.58
2023-09-27T04:27:44.918Z,102019.41
2023-09-27T04:30:14.704Z,102022.41
2023-09-27T04:32:46.502Z,102025.84
2023-09-27T04:35:14.943Z,102027.80
2023-09-27T04:37:43.364Z,102025.39
2023-09-27T04:40:18.547Z,102024.40
2023-09-27T04:42:47.055Z,102024.11
2023-09-27T04:45:14.931Z,102026.23
2023-09-27T04:47:42.701Z,102026.44
2023-09-27T04:50:11.724Z,102027.53
2023-09-27T04:52:39.927Z,102028.27
2023-09-27T04:55:09.618Z,102030.55
2023-09-27T04:57:37.517Z,102026.80
2023-09-27T05:00:07.358Z,102031.09
2023-09-27T05:02:34.998Z,102028.92
2023-09-27T05:05:03.032Z,102029.03
2023-09-27T05:07:30.993Z,102031.42
2023-09-27T05:09:59.021Z,102030.62
2023-09-27T05:12:26.788Z,102027.05
2023-09-27T05:14:54.410Z,102028.18
2023-09-27T05:17:22.096Z,102031.25
2023-09-27T05:19:49.835Z,102029.95
2023-09-27T05:22:20.482Z,102028.95
2023-09-27T05:24:48.249Z,102029.94
2023-09-27T05:27:15.843Z,102029.33
2023-09-27T05:29:43.468Z,102028.41
2023-09-27T05:32:11.210Z,102029.08
2023-09-27T05:34:39.100Z,102032.95
2023-09-27T05:37:06.757Z,102036.08
2023-09-27T05:39:34.537Z,102033.14
2023-09-27T05:42:02.445Z,102034.85
2023-09-27T05:44:29.986Z,102032.52
2023-09-27T05:46:57.735Z,102034.58
2023-09-27T05:49:26.966Z,102030.84
2023-09-27T05:51:54.516Z,102031.82
2023-09-27T05:54:22.170Z,102033.45
2023-09-27T05:56:53.090Z,102034.09
2023-09-27T05:59:20.829Z,102033.39
2023-09-27T06:01:48.794Z,102032.03
2023-09-27T06:04:16.570Z,102028.23
2023-09-27T06:06:44.625Z,102029.72
2023-09-27T06:09:13.482Z,102032.04
2023-09-27T06:11:41.241Z,102032.70
2023-09-27T06:14:11.922Z,102033.19
2023-09-27T06:16:40.361Z,102033.71
2023-09-27T06:19:11.432Z,102033.14
2023-09-27T06:21:39.208Z,102036.81
2023-09-27T06:24:07.321Z,102042.52
2023-09-27T06:26:36.476Z,102046.66
2023-09-27T06:29:07.246Z,102048.52
2023-09-27T06:31:36.478Z,102049.66
2023-09-27T06:34:04.779Z,102052.59
2023-09-27T06:36:36.463Z,102052.82
2023-09-27T06:39:07.955Z,102054.27
2023-09-27T06:41:35.811Z,102054.79
2023-09-27T06:44:08.088Z,102049.54
2023-09-27T06:46:48.278Z,102041.61
2023-09-27T06:49:18.257Z,102044.52
2023-09-27T06:51:45.843Z,102041.09
2023-09-27T06:54:13.490Z,102042.86
2023-09-27T06:56:42.431Z,102041.29
2023-09-27T06:59:10.642Z,102036.21
2023-09-27T07:01:38.344Z,102041.23
2023-09-27T07:04:07.339Z,102045.91
2023-09-27T07:06:35.106Z,102040.68
2023-09-27T07:09:10.022Z,102041.61
2023-09-27T07:11:44.248Z,102043.25
2023-09-27T07:14:14.638Z,102039.73
2023-09-27T07:17:00.943Z,102036.96
2023-09-27T07:22:41.754Z,102045.64
2023-09-27T07:25:19.486Z,102042.88
2023-09-27T07:27:51.309Z,102043.17
2023-09-27T07:30:27.013Z,102043.74
2023-09-27T07:32:56.737Z,102046.89
2023-09-27T07:35:29.101Z,102046.80
2023-09-27T07:37:57.017Z,102045.56
2023-09-27T07:40:24.777Z,102039.55
2023-09-27T07:42:53.268Z,102038.95
2023-09-27T07:45:24.400Z,102039.45
2023-09-27T07:47:52.865Z,102036.52
2023-09-27T07:50:34.916Z,102034.31
2023-09-27T07:53:07.617Z,102030.73
2023-09-27T07:55:45.275Z,102030.26
2023-09-27T07:58:14.176Z,102032.41
2023-09-27T08:00:42.371Z,102036.36
2023-09-27T08:03:10.886Z,102031.70
2023-09-27T08:05:45.490Z,102031.64
2023-09-27T08:08:14.994Z,102025.44
2023-09-27T08:10:45.127Z,102022.85
2023-09-27T08:13:18.399Z,102026.31
2023-09-27T08:15:50.734Z,102026.65
2023-09-27T08:18:18.644Z,102016.68
2023-09-27T08:20:50.082Z,102015.85
2023-09-27T08:23:20.808Z,102016.06
2023-09-27T08:25:52.929Z,102014.67
2023-09-27T08:28:22.831Z,102008.08
2023-09-27T08:30:50.603Z,102007.88
2023-09-27T08:33:20.940Z,102003.77
2023-09-27T08:35:52.595Z,102001.55
2023-09-27T08:38:20.527Z,102000.90
2023-09-27T08:40:49.555Z,101998.50
2023-09-27T08:43:17.162Z,101999.00
2023-09-27T08:45:46.805Z,101997.41
2023-09-27T08:48:18.072Z,101996.70
2023-09-27T08:50:46.092Z,101990.84
2023-09-27T08:53:14.050Z,101991.73
2023-09-27T08:55:50.526Z,101994.80
2023-09-27T08:58:26.853Z,101993.20
2023-09-27T09:00:54.534Z,101984.08
2023-09-27T09:03:23.312Z,101986.72
2023-09-27T09:05:51.595Z,101985.95
2023-09-27T09:08:33.418Z,101976.06
2023-09-27T09:11:12.673Z,101979.19
2023-09-27T09:13:58.977Z,101981.92
2023-09-27T09:16:29.590Z,101984.23
2023-09-27T09:19:01.725Z,101984.67
2023-09-27T09:21:35.715Z,101980.11
2023-09-27T09:24:10.385Z,101979.70
2023-09-27T09:26:38.340Z,101976.55
2023-09-27T09:29:10.746Z,101976.27
2023-09-27T09:31:38.624Z,101976.63
2023-09-27T09:34:07.300Z,101968.83
2023-09-27T09:36:39.003Z,101968.60
2023-09-27T09:39:15.173Z,101966.02
2023-09-27T09:41:50.821Z,101963.38
2023-09-27T09:44:21.074Z,101962.55
2023-09-27T09:46:49.336Z,101957.64
2023-09-27T09:49:17.400Z,101959.77
2023-09-27T09:51:54.488Z,101953.64
2023-09-27T09:54:27.868Z,101954.98
2023-09-27T09:57:10.092Z,101951.70
2023-09-27T09:59:45.258Z,101949.20
2023-09-27T10:02:32.728Z,101948.77
2023-09-27T10:05:00.642Z,101951.34
2023-09-27T10:07:28.438Z,101948.86
2023-09-27T10:09:56.964Z,101948.48
2023-09-27T10:12:37.696Z,101946.17
2023-09-27T10:15:08.871Z,101946.80
2023-09-27T10:17:36.698Z,101945.73
2023-09-27T10:20:14.161Z,101942.29
2023-09-27T10:22:44.536Z,101938.90
2023-09-27T10:25:28.535Z,101939.37
2023-09-27T10:28:09.643Z,101942.11
2023-09-27T10:30:46.531Z,101941.84
2023-09-27T10:33:17.968Z,101938.72
2023-09-27T10:35:48.039Z,101933.89
2023-09-27T10:38:17.410Z,101930.27
2023-09-27T10:40:48.404Z,101924.35
2023-09-27T10:43:42.613Z,101920.73
2023-09-27T10:46:10.459Z,101918.09
2023-09-27T10:48:40.759Z,101926.70
2023-09-27T10:51:10.044Z,101921.23
2023-09-27T10:53:38.202Z,101918.41
2023-09-27T10:56:05.792Z,101918.69
2023-09-27T10:58:33.492Z,101912.75
2023-09-27T11:01:02.758Z,101912.64
2023-09-27T11:03:34.751Z,101912.06
2023-09-27T11:06:17.575Z,101911.61
2023-09-27T11:08:47.489Z,101910.04
2023-09-27T11:11:17.827Z,101908.89
2023-09-27T11:13:49.922Z,101907.82
2023-09-27T11:16:22.633Z,101905.90
2023-09-27T11:18:57.858Z,101898.29
2023-09-27T11:21:27.830Z,101897.93
2023-09-27T11:24:04.905Z,101904.52
2023-09-27T11:26:38.485Z,101906.54
2023-09-27T11:29:08.510Z,101900.50
2023-09-27T11:31:39.581Z,101899.95
2023-09-27T11:34:14.744Z,101896.23
2023-09-27T11:37:04.034Z,101894.09
2023-09-27T11:40:03.921Z,101887.89
2023-09-27T11:42:31.488Z,101883.68
2023-09-27T11:45:06.387Z,101882.77
2023-09-27T11:47:45.438Z,101885.60
2023-09-27T11:50:15.068Z,101882.83
2023-09-27T11:52:48.144Z,101884.48
2023-09-27T11:55:24.597Z,101880.05
2023-09-27T11:57:52.577Z,101882.56
2023-09-27T12:00:21.651Z,101874.89
2023-09-27T12:02:57.166Z,101878.34
2023-09-27T12:05:26.408Z,101876.70
2023-09-27T12:07:56.522Z,101867.64
2023-09-27T12:10:24.478Z,101869.00
2023-09-27T12:12:52.220Z,101866.47
2023-09-27T12:15:19.988Z,101868.73
2023-09-27T12:17:47.799Z,101868.59
2023-09-27T12:20:31.996Z,101869.30
2023-09-27T12:23:04.661Z,101871.96
2023-09-27T12:25:34.707Z,101865.48
2023-09-27T12:28:02.480Z,101864.77
2023-09-27T12:30:30.266Z,101862.10
2023-09-27T12:32:58.059Z,101862.90
2023-09-27T12:35:25.927Z,101856.80
2023-09-27T12:37:53.718Z,101860.14
2023-09-27T12:40:22.147Z,101862.15
2023-09-27T12:42:51.350Z,101855.73
2023-09-27T12:45:19.796Z,101855.34
2023-09-27T12:47:50.823Z,101857.26
2023-09-27T12:50:22.229Z,101852.20
2023-09-27T12:52:49.852Z,101852.89
2023-09-27T12:55:17.679Z,101845.84
2023-09-27T12:57:48.644Z,101848.99
2023-09-27T13:00:20.557Z,101847.83
2023-09-27T13:02:48.426Z,101846.11
2023-09-27T13:05:19.654Z,101841.02
2023-09-27T13:07:48.106Z,101839.17
2023-09-27T13:10:16.073Z,101835.90
2023-09-27T13:12:44.263Z,101837.40
2023-09-27T13:15:12.441Z,101835.59
2023-09-27T13:17:40.461Z,101834.23
2023-09-27T13:20:12.006Z,101835.38
2023-09-27T13:22:40.203Z,101834.84
2023-09-27T13:25:12.993Z,101836.38
2023-09-27T13:27:41.048Z,101831.59
2023-09-27T13:30:13.441Z,101832.48
2023-09-27T13:32:54.287Z,101829.27
2023-09-27T13:35:23.761Z,101826.51
2023-09-27T13:37:51.249Z,101824.27
2023-09-27T13:40:19.035Z,101826.91
2023-09-27T13:42:49.732Z,101821.70
2023-09-27T13:45:17.467Z,101819.88
2023-09-27T13:47:45.675Z,101816.19
2023-09-27T13:50:13.877Z,101817.10
2023-09-27T13:52:44.352Z,101818.05
2023-09-27T13:55:12.777Z,101818.82
2023-09-27T13:57:46.890Z,101819.89
2023-09-27T14:00:14.989Z,101818.45
2023-09-27T14:02:44.113Z,101816.36
2023-09-27T14:05:12.442Z,101816.21
2023-09-27T14:07:43.863Z,101815.76
2023-09-27T14:10:11.567Z,101817.43
2023-09-27T14:12:39.893Z,101815.80
2023-09-27T14:15:07.973Z,101814.98
2023-09-27T14:17:36.284Z,101812.61
2023-09-27T14:20:07.214Z,101809.41
2023-09-27T14:22:37.997Z,101808.59
2023-09-27T14:25:09.784Z,101810.56
2023-09-27T14:27:38.008Z,101808.09
2023-09-27T14:30:11.162Z,101804.45
2023-09-27T14:32:40.889Z,101805.08
2023-09-27T14:35:09.674Z,101805.34
2023-09-27T14:37:40.878Z,101809.36
2023-09-27T14:40:12.356Z,101811.10
2023-09-27T14:42:50.742Z,101812.60
2023-09-27T14:45:31.285Z,101813.53
2023-09-27T14:48:01.754Z,101814.63
2023-09-27T14:50:31.551Z,101816.50
2023-09-27T14:52:59.687Z,101813.02
2023-09-27T14:55:27.806Z,101818.66
2023-09-27T14:57:56.995Z,101815.58
2023-09-27T15:00:24.670Z,101817.70
2023-09-27T15:02:53.575Z,101817.26
2023-09-27T15:05:21.916Z,101821.45
2023-09-27T15:07:49.812Z,101819.71
2023-09-27T15:10:17.660Z,101818.64
2023-09-27T15:12:45.374Z,101814.66
2023-09-27T15:15:13.129Z,101813.14
2023-09-27T15:17:44.451Z,101814.48
2023-09-27T15:20:13.482Z,101810.56
2023-09-27T15:22:42.141Z,101815.60
2023-09-27T15:25:12.601Z,101815.55
2023-09-27T15:27:40.312Z,101814.73
2023-09-27T15:30:11.254Z,101815.03
2023-09-27T15:32:39.552Z,101812.14
2023-09-27T15:35:08.399Z,101811.45
2023-09-27T15:37:36.155Z,101819.27
2023-09-27T15:40:08.889Z,101820.37
2023-09-27T15:42:36.377Z,101820.02
2023-09-27T15:45:09.742Z,101818.80
2023-09-27T15:47:37.532Z,101820.12
2023-09-27T15:50:05.875Z,101824.39
2023-09-27T15:52:35.835Z,101825.83
2023-09-27T15:55:06.329Z,101826.27
2023-09-27T15:57:33.859Z,101830.06
2023-09-27T16:00:02.496Z,101830.94
2023-09-27T16:02:37.968Z,101828.98
2023-09-27T16:05:06.003Z,101833.34
2023-09-27T16:07:33.777Z,101835.00
2023-09-27T16:10:01.423Z,101835.67
2023-09-27T16:12:28.991Z,101835.23
2023-09-27T16:14:56.657Z,101835.46
2023-09-27T16:17:24.276Z,101834.95
2023-09-27T16:19:52.275Z,101834.03
2023-09-27T16:22:19.897Z,101838.39
2023-09-27T16:24:47.442Z,101840.47
2023-09-27T16:27:15.130Z,101842.13
2023-09-27T16:29:42.635Z,101841.06
2023-09-27T16:32:10.869Z,101839.09
2023-09-27T16:34:40.191Z,101837.84
2023-09-27T16:37:08.572Z,101838.66
2023-09-27T16:39:36.400Z,101842.25
2023-09-27T16:42:03.997Z,101846.37
2023-09-27T16:44:32.555Z,101849.79
2023-09-27T16:47:00.907Z,101849.85
2023-09-27T16:49:30.149Z,101847.24
2023-09-27T16:51:57.671Z,101847.93
2023-09-27T16:54:25.521Z,101848.86
2023-09-27T16:56:53.065Z,101848.79
2023-09-27T16:59:21.102Z,101847.58
2023-09-27T17:01:48.892Z,101851.27
2023-09-27T17:04:16.566Z,101852.17
2023-09-27T17:06:45.832Z,101848.29
2023-09-27T17:09:15.449Z,101848.70
2023-09-27T17:11:43.147Z,101855.41
2023-09-27T17:14:10.873Z,101853.41
2023-09-27T17:16:38.627Z,101851.85
2023-09-27T17:19:07.755Z,101852.09
2023-09-27T17:21:35.286Z,101854.52
2023-09-27T17:24:02.918Z,101852.61
2023-09-27T17:26:30.631Z,101855.30
2023-09-27T17:28:58.256Z,101861.44
2023-09-27T17:31:28.191Z,101861.04
2023-09-27T17:33:56.089Z,101863.04
2023-09-27T17:36:23.973Z,101860.42
2023-09-27T17:38:51.602Z,101860.72
2023-09-27T17:41:19.163Z,101863.47
2023-09-27T17:43:46.799Z,101867.56
2023-09-27T17:46:23.947Z,101870.28
2023-09-27T17:48:52.380Z,101869.73
2023-09-27T17:51:20.152Z,101868.41
2023-09-27T17:53:48.502Z,101867.59
2023-09-27T17:56:16.207Z,101870.29
2023-09-27T17:58:43.955Z,101870.73
2023-09-27T18:01:11.961Z,101869.27
2023-09-27T18:03:39.740Z,101872.67
2023-09-27T18:06:09.044Z,101873.42
2023-09-27T18:08:37.432Z,101873.38
2023-09-27T18:11:13.490Z,101869.03
2023-09-27T18:13:41.814Z,101869.08
2023-09-27T18:16:16.787Z,101870.00
2023-09-27T18:18:45.053Z,101870.20
2023-09-27T18:21:13.330Z,101871.30
2023-09-27T18:23:41.527Z,101866.48
2023-09-27T18:26:10.182Z,101865.85
2023-09-27T18:28:38.489Z,101865.52
2023-09-27T18:31:07.444Z,101864.02
2023-09-27T18:33:35.547Z,101865.48
2023-09-27T18:36:04.043Z,101866.97
2023-09-27T18:38:31.583Z,101868.43
2023-09-27T18:40:59.123Z,101868.22
2023-09-27T18:43:26.789Z,101867.89
2023-09-27T18:45:54.415Z,101863.70
2023-09-27T18:48:23.503Z,101865.30
2023-09-27T18:50:51.115Z,101865.95
2023-09-27T18:53:21.353Z,101866.46
2023-09-27T18:55:48.980Z,101868.56
2023-09-27T18:58:16.715Z,101868.92
2023-09-27T19:00:44.620Z,101871.61
2023-09-27T19:03:13.811Z,101867.09
2023-09-27T19:05:41.661Z,101868.63
2023-09-27T19:08:09.290Z,101880.60
2023-09-27T19:10:39.292Z,101891.06
2023-09-27T19:13:07.168Z,101887.36
2023-09-27T19:15:34.804Z,101894.20
2023-09-27T19:18:02.593Z,101886.36
2023-09-27T19:20:30.535Z,101887.89
2023-09-27T19:22:58.724Z,101894.99
2023-09-27T19:25:26.492Z,101888.08
2023-09-27T19:27:54.181Z,101881.17
2023-09-27T19:30:22.160Z,101877.09
2023-09-27T19:32:49.902Z,101881.89
2023-09-27T19:35:17.618Z,101882.36
2023-09-27T19:37:45.444Z,101879.07
2023-09-27T19:40:16.440Z,101881.60
2023-09-27T19:42:44.077Z,101881.00
2023-09-27T19:45:11.845Z,101883.08
2023-09-27T19:47:40.176Z,101885.14
2023-09-27T19:50:10.268Z,101883.92
2023-09-27T19:52:39.154Z,101878.98
2023-09-27T19:55:09.898Z,101879.35
2023-09-27T19:57:37.501Z,101872.84
2023-09-27T20:00:09.279Z,101877.73
2023-09-27T20:02:37.500Z,101869.73
2023-09-27T20:05:05.358Z,101871.10
2023-09-27T20:07:32.931Z,101864.66
2023-09-27T20:10:01.270Z,101864.48
2023-09-27T20:12:28.764Z,101861.27
2023-09-27T20:14:56.280Z,101861.88
2023-09-27T20:17:23.825Z,101860.40
2023-09-27T20:19:51.343Z,101857.50
2023-09-27T20:22:20.374Z,101857.09
2023-09-27T20:24:47.954Z,101863.78
2023-09-27T20:27:16.453Z,101864.00
2023-09-27T20:29:44.009Z,101860.14
2023-09-27T20:32:11.654Z,101854.89
2023-09-27T20:34:40.220Z,101851.92
2023-09-27T20:37:08.042Z,101850.81
2023-09-27T20:39:35.779Z,101847.03
2023-09-27T20:42:03.771Z,101843.95
2023-09-27T20:44:31.360Z,101842.96
2023-09-27T20:46:59.013Z,101839.73
2023-09-27T20:49:26.569Z,101835.11
2023-09-27T20:51:54.112Z,101832.28
2023-09-27T20:54:21.652Z,101824.36
2023-09-27T20:56:49.135Z,101826.27
2023-09-27T20:59:16.760Z,101825.34
2023-09-27T21:01:45.249Z,101824.52
2023-09-27T21:04:16.050Z,101821.84
2023-09-27T21:06:43.708Z,101819.72
2023-09-27T21:09:11.706Z,101818.73
2023-09-27T21:11:39.271Z,101822.61
2023-09-27T21:14:06.805Z,101819.77
2023-09-27T21:16:34.440Z,101819.41
2023-09-27T21:19:02.689Z,101817.90
2023-09-27T21:21:30.685Z,101819.26
2023-09-27T21:23:58.349Z,101817.10
2023-09-27T21:26:25.950Z,101811.23
2023-09-27T21:28:53.609Z,101813.26
2023-09-27T21:31:21.422Z,101811.17
2023-09-27T21:33:49.852Z,101814.79
2023-09-27T21:36:18.666Z,101812.58
2023-09-27T21:38:46.390Z,101817.94
2023-09-27T21:41:14.033Z,101818.55
2023-09-27T21:43:41.650Z,101816.58
2023-09-27T21:46:19.841Z,101817.42
2023-09-27T21:48:49.369Z,101831.96
2023-09-27T21:51:17.726Z,101835.80
2023-09-27T21:53:45.315Z,101836.20
2023-09-27T21:56:13.770Z,101836.69
2023-09-27T21:58:41.645Z,101836.42
2023-09-27T22:01:13.262Z,101837.45
2023-09-27T22:03:41.155Z,101832.36
2023-09-27T22:06:09.890Z,101833.19
2023-09-27T22:08:38.293Z,101835.23
2023-09-27T22:11:05.979Z,101835.57
2023-09-27T22:13:39.603Z,101834.00
2023-09-27T22:16:13.343Z,101833.93
2023-09-27T22:18:50.961Z,101833.91
2023-09-27T22:21:47.549Z,101833.98
2023-09-27T22:24:16.860Z,101833.64
2023-09-27T22:26:52.720Z,101831.94
2023-09-27T22:29:21.780Z,101832.98
2023-09-27T22:31:49.371Z,101831.77
2023-09-27T22:34:25.889Z,101834.48
2023-09-27T22:36:54.604Z,101834.72
2023-09-27T22:39:23.387Z,101835.14
2023-09-27T22:41:54.075Z,101833.77
2023-09-27T22:44:23.134Z,101834.36
2023-09-27T22:46:52.918Z,101834.43
2023-09-27T22:49:22.516Z,101837.02
2023-09-27T22:51:50.296Z,101826.43
2023-09-27T22:54:19.224Z,101829.80
2023-09-27T22:56:47.723Z,101827.08
2023-09-27T22:59:15.360Z,101822.65
2023-09-27T23:01:44.349Z,101825.07
2023-09-27T23:04:15.976Z,101825.80
2023-09-27T23:06:54.978Z,101827.70
2023-09-27T23:09:25.712Z,101825.77
2023-09-27T23:12:17.955Z,101823.95
2023-09-27T23:15:04.612Z,101825.91
2023-09-27T23:17:52.084Z,101821.36
2023-09-27T23:20:28.791Z,101818.93
2023-09-27T23:23:08.202Z,101819.15
2023-09-27T23:25:40.354Z,101821.54
2023-09-27T23:28:08.019Z,101817.46
2023-09-27T23:30:35.632Z,101816.34
2023-09-27T23:33:03.355Z,101810.48
2023-09-27T23:35:34.100Z,101811.27
2023-09-27T23:38:30.759Z,101807.63
2023-09-27T23:41:02.130Z,101807.59
2023-09-27T23:43:41.920Z,101807.00
2023-09-27T23:46:29.986Z,101805.65
2023-09-27T23:49:03.174Z,101801.89
2023-09-27T23:51:31.803Z,101804.96
2023-09-27T23:54:00.934Z,101800.66
2023-09-27T23:56:31.376Z,101798.95
2023-09-27T23:59:09.093Z,101797.11
